Fromveur II — FICH — position and weather

sailwx.info

Track history (hours):
 
Tides and Currents Weather Stations Pressure Air Temp Water Temp Dewpoint Dewpoint Depression Visibility Wind Speed Wind Dir Waves Ship Positions

Fromveur II

Last reported at 2018-Jul-23 11:29 UTC. Time now 2018-Jul-23 11:35 UTC.
Position N 48°28' W 005°03'.

Length 45 m; draft 2.8 m.

Type: Ship. MMSI: 228017700.

Date/timePositionNaut miles runAvg speedWind from/ knotsBaromVisibWave heightAir tempDewpointWater temp
2018-Jul-23 11:29N 48°28' W 005°03'0 0.0
2018-Jul-23 10:59N 48°28' W 005°03'0 0.0
2018-Jul-23 10:23N 48°28' W 005°03'0 0.0
2018-Jul-23 09:59N 48°28' W 005°03'0 0.0
2018-Jul-23 09:29N 48°28' W 005°03'0 1.0
2018-Jul-23 09:00N 48°28' W 005°03'5 9.7
2018-Jul-23 08:28N 48°24' W 004°57'510.8
2018-Jul-23 07:59N 48°23' W 004°50'3 5.4
2018-Jul-23 07:29N 48°22' W 004°47'510.7
2018-Jul-23 07:00N 48°19' W 004°40'714.6
2018-Jul-23 06:30N 48°22' W 004°30'1 2.5
2018-Jul-23 06:00N 48°23' W 004°29'0 0.0
2018-Jul-23 05:30N 48°23' W 004°29'0 0.0
2018-Jul-23 04:59N 48°23' W 004°29'0 0.0
2018-Jul-23 04:30N 48°23' W 004°29'0 0.0
2018-Jul-23 03:59N 48°23' W 004°29'0 0.0
2018-Jul-23 03:29N 48°23' W 004°29'0 0.0
2018-Jul-23 02:59N 48°23' W 004°29'0 0.0
2018-Jul-23 02:29N 48°23' W 004°29'0 0.0
2018-Jul-23 02:00N 48°23' W 004°29'0 0.0
2018-Jul-23 01:25N 48°23' W 004°29'0 0.0
2018-Jul-23 00:58N 48°23' W 004°29'0 0.0
2018-Jul-23 00:23N 48°23' W 004°29'0 0.0
2018-Jul-23 00:00N 48°23' W 004°29'0 0.0
2018-Jul-22 23:30N 48°23' W 004°29'0 0.0
2018-Jul-22 22:58N 48°23' W 004°29'0 0.0
2018-Jul-22 22:28N 48°23' W 004°29'0 0.0
2018-Jul-22 21:58N 48°23' W 004°29'0 0.0
2018-Jul-22 21:28N 48°23' W 004°29'0 0.0
2018-Jul-22 21:00N 48°23' W 004°29'0 0.0
2018-Jul-22 20:29N 48°23' W 004°29'0 0.0
2018-Jul-22 19:57N 48°23' W 004°29'0 0.0
2018-Jul-22 19:26N 48°23' W 004°29'0 0.0
2018-Jul-22 18:57N 48°23' W 004°29'0 0.0
2018-Jul-22 18:27N 48°23' W 004°29'0 0.0
2018-Jul-22 17:57N 48°23' W 004°29'2 3.5
2018-Jul-22 17:30N 48°22' W 004°31'714.2
2018-Jul-22 17:00N 48°20' W 004°41'4 8.5
2018-Jul-22 16:30N 48°22' W 004°47'4 8.3
2018-Jul-22 16:00N 48°24' W 004°51'9 8.7
2018-Jul-22 15:00N 48°28' W 005°03'0 0.0
2018-Jul-22 14:23N 48°28' W 005°03'0 0.0
2018-Jul-22 13:59N 48°28' W 005°03'0 0.0
2018-Jul-22 13:27N 48°28' W 005°03'0 0.0
2018-Jul-22 12:58N 48°28' W 005°03'0 0.0
2018-Jul-22 12:29N 48°28' W 005°03'0 0.0
2018-Jul-22 11:58N 48°28' W 005°03'0 0.0
2018-Jul-22 11:28N 48°28' W 005°03'0 0.0
2018-Jul-22 11:00N 48°28' W 005°03'0 0.0
2018-Jul-22 10:24N 48°28' W 005°03'0 0.0
2018-Jul-22 09:59N 48°28' W 005°03'0 0.0
2018-Jul-22 09:30N 48°28' W 005°03'1 1.8
2018-Jul-22 09:00N 48°28' W 005°02'5 9.2
2018-Jul-22 08:27N 48°24' W 004°57'511.2
2018-Jul-22 08:00N 48°24' W 004°50'3 5.7
2018-Jul-22 07:30N 48°22' W 004°47'611.1
2018-Jul-22 07:01N 48°20' W 004°39'713.8
2018-Jul-22 06:31N 48°22' W 004°29'1 1.4
2018-Jul-22 06:00N 48°23' W 004°29'0 0.0
2018-Jul-22 05:29N 48°23' W 004°29'0 0.0
2018-Jul-22 05:00N 48°23' W 004°29'0 0.0
2018-Jul-22 04:29N 48°23' W 004°29'0 0.0
2018-Jul-22 03:59N 48°23' W 004°29'0 0.0
2018-Jul-22 03:28N 48°23' W 004°29'0 0.0
2018-Jul-22 02:55N 48°23' W 004°29'0 0.0
2018-Jul-22 02:30N 48°23' W 004°29'0 0.0
2018-Jul-22 02:00N 48°23' W 004°29'0 0.0
2018-Jul-22 01:28N 48°23' W 004°29'0 0.0
2018-Jul-22 00:53N 48°23' W 004°29'0 0.0
2018-Jul-22 00:29N 48°23' W 004°29'0 0.0
2018-Jul-21 23:59N 48°23' W 004°29'0 0.0
2018-Jul-21 23:28N 48°23' W 004°29'0 0.0
2018-Jul-21 22:57N 48°23' W 004°29'0 0.0
2018-Jul-21 22:30N 48°23' W 004°29'0 0.0
2018-Jul-21 22:00N 48°23' W 004°29'0 0.0
2018-Jul-21 21:28N 48°23' W 004°29'0 0.0
2018-Jul-21 21:00N 48°23' W 004°29'0 0.0
2018-Jul-21 20:30N 48°23' W 004°29'0 0.0
2018-Jul-21 20:00N 48°23' W 004°29'0 0.0
2018-Jul-21 19:29N 48°23' W 004°29'0 0.0
2018-Jul-21 19:00N 48°23' W 004°29'0 0.0
2018-Jul-21 18:30N 48°23' W 004°29'0 0.0
2018-Jul-21 17:59N 48°23' W 004°29'0 0.5
2018-Jul-21 17:30N 48°23' W 004°29'713.8
2018-Jul-21 17:00N 48°20' W 004°39'612.0
2018-Jul-21 16:30N 48°21' W 004°47'3 6.8
2018-Jul-21 16:00N 48°24' W 004°51'4 9.0
2018-Jul-21 15:30N 48°24' W 004°57'611.1
2018-Jul-21 15:00N 48°28' W 005°03'0 0.0
2018-Jul-21 14:28N 48°28' W 005°03'4 3.9
2018-Jul-21 13:30N 48°26' W 004°58'3 6.7
2018-Jul-21 13:00N 48°24' W 004°54'610.9
2018-Jul-21 12:29N 48°22' W 004°47'0 0.0
2018-Jul-21 11:59N 48°22' W 004°47'0 0.0
2018-Jul-21 11:29N 48°22' W 004°47'0 0.0
2018-Jul-21 11:00N 48°22' W 004°47'2 5.0
2018-Jul-21 10:30N 48°23' W 004°50'815.0
2018-Jul-21 10:00N 48°28' W 004°59'3 5.8
2018-Jul-21 09:28N 48°28' W 005°03'2 3.7
2018-Jul-21 08:58N 48°28' W 005°01'4 7.8
2018-Jul-21 08:27N 48°24' W 004°57'511.0
2018-Jul-21 08:00N 48°24' W 004°50'3 5.7
2018-Jul-21 07:30N 48°22' W 004°47'510.7
2018-Jul-21 07:00N 48°20' W 004°39'713.2
2018-Jul-21 06:30N 48°22' W 004°30'1 2.1
2018-Jul-21 05:59N 48°23' W 004°29'0 0.0
2018-Jul-21 05:28N 48°23' W 004°29'0 0.0
2018-Jul-21 04:58N 48°23' W 004°29'0 0.0
2018-Jul-21 04:28N 48°23' W 004°29'0 0.0
2018-Jul-21 03:58N 48°23' W 004°29'0 0.0
2018-Jul-21 03:30N 48°23' W 004°29'0 0.0
2018-Jul-21 03:00N 48°23' W 004°29'0 0.0
2018-Jul-21 02:28N 48°23' W 004°29'0 0.0
2018-Jul-21 01:58N 48°23' W 004°29'0 0.0
2018-Jul-21 01:28N 48°23' W 004°29'0 0.0
2018-Jul-21 01:00N 48°23' W 004°29'0 0.0
2018-Jul-21 00:30N 48°23' W 004°29'0 0.0
2018-Jul-21 00:00N 48°23' W 004°29'0 0.0
2018-Jul-20 23:29N 48°23' W 004°29'0 0.0
2018-Jul-20 23:00N 48°23' W 004°29'0 0.0
2018-Jul-20 22:30N 48°23' W 004°29'0 0.0
2018-Jul-20 22:00N 48°23' W 004°29'0 0.0
2018-Jul-20 21:27N 48°23' W 004°29'0 0.0
2018-Jul-20 21:00N 48°23' W 004°29'0 0.0
2018-Jul-20 20:30N 48°23' W 004°29'4 8.0
2018-Jul-20 20:01N 48°21' W 004°34'815.7
2018-Jul-20 19:31N 48°19' W 004°46'4 7.2
2018-Jul-20 19:01N 48°22' W 004°48'814.8
2018-Jul-20 18:30N 48°27' W 004°57'4 8.7
2018-Jul-20 18:01N 48°28' W 005°03'5 9.1
2018-Jul-20 17:30N 48°26' W 004°57'3 5.9
2018-Jul-20 17:00N 48°24' W 004°54'510.6
2018-Jul-20 16:30N 48°22' W 004°47'1 2.2
2018-Jul-20 16:00N 48°22' W 004°48'612.7
2018-Jul-20 15:31N 48°25' W 004°57'3 6.9
2018-Jul-20 15:00N 48°27' W 005°00'2 4.5
2018-Jul-20 14:30N 48°28' W 005°03'0 0.0
2018-Jul-20 14:00N 48°28' W 005°03'0 0.0
2018-Jul-20 13:30N 48°28' W 005°03'0 0.0
2018-Jul-20 13:00N 48°28' W 005°03'0 0.0
2018-Jul-20 12:30N 48°28' W 005°03'0 0.0
2018-Jul-20 12:00N 48°28' W 005°03'0 0.0
2018-Jul-20 11:30N 48°28' W 005°03'0 0.0
2018-Jul-20 11:00N 48°28' W 005°03'0 0.0
2018-Jul-20 10:30N 48°28' W 005°03'0 0.0
2018-Jul-20 10:00N 48°28' W 005°03'0 0.0
2018-Jul-20 09:29N 48°28' W 005°03'1 1.0
2018-Jul-20 09:00N 48°28' W 005°03'510.5
2018-Jul-20 08:30N 48°24' W 004°57'510.3
2018-Jul-20 08:00N 48°23' W 004°50'3 5.3
2018-Jul-20 07:30N 48°22' W 004°47'5 9.3
2018-Jul-20 07:00N 48°20' W 004°40'813.6
2018-Jul-20 06:26N 48°22' W 004°29'1 1.9
2018-Jul-20 06:00N 48°23' W 004°29'0 0.0
2018-Jul-20 05:27N 48°23' W 004°29'0 0.0
2018-Jul-20 05:00N 48°23' W 004°29'0 0.0
2018-Jul-20 04:30N 48°23' W 004°29'0 0.0
2018-Jul-20 03:59N 48°23' W 004°29'0 0.0
2018-Jul-20 03:30N 48°23' W 004°29'0 0.0
2018-Jul-20 03:00N 48°23' W 004°29'0 0.0
2018-Jul-20 02:30N 48°23' W 004°29'0 0.0
2018-Jul-20 01:57N 48°23' W 004°29'0 0.0
2018-Jul-20 01:28N 48°23' W 004°29'0 0.0
2018-Jul-20 01:00N 48°23' W 004°29'0 0.0
2018-Jul-20 00:28N 48°23' W 004°29'0 0.0
2018-Jul-19 23:58N 48°23' W 004°29'0 0.0
2018-Jul-19 23:26N 48°23' W 004°29'0 0.0
2018-Jul-19 22:55N 48°23' W 004°29'0 0.0
2018-Jul-19 22:29N 48°23' W 004°29'0 0.0
2018-Jul-19 22:00N 48°23' W 004°29'0 0.0
2018-Jul-19 21:30N 48°23' W 004°29'0 0.0
2018-Jul-19 20:57N 48°23' W 004°29'0 0.0
2018-Jul-19 20:28N 48°23' W 004°29'0 0.0
2018-Jul-19 19:58N 48°23' W 004°29'0 0.0
2018-Jul-19 19:30N 48°23' W 004°29'0 0.0
2018-Jul-19 19:00N 48°23' W 004°29'0 0.0
2018-Jul-19 18:31N 48°23' W 004°29'0 0.0
2018-Jul-19 18:01N 48°23' W 004°29'3 5.2
2018-Jul-19 17:30N 48°21' W 004°32'815.9
2018-Jul-19 17:00N 48°20' W 004°44'3 5.6
2018-Jul-19 16:30N 48°22' W 004°47'5 9.8
2018-Jul-19 16:00N 48°24' W 004°53'3 6.0
2018-Jul-19 15:30N 48°24' W 004°57'610.9
2018-Jul-19 14:59N 48°28' W 005°03'0 0.0
2018-Jul-19 14:00N 48°28' W 005°03'0 0.0
2018-Jul-19 13:31N 48°28' W 005°03'0 0.0
2018-Jul-19 13:00N 48°28' W 005°03'0 0.0
2018-Jul-19 12:30N 48°28' W 005°03'0 0.0
2018-Jul-19 12:00N 48°28' W 005°03'0 0.0
2018-Jul-19 11:31N 48°28' W 005°03'0 0.0
2018-Jul-19 11:00N 48°28' W 005°03'0 0.0
2018-Jul-19 10:29N 48°28' W 005°03'0 0.0
2018-Jul-19 10:00N 48°28' W 005°03'0 0.0
2018-Jul-19 09:30N 48°28' W 005°03'2 3.5
2018-Jul-19 09:00N 48°28' W 005°01'4 8.8
2018-Jul-19 08:31N 48°24' W 004°57'5 9.7
2018-Jul-19 08:00N 48°24' W 004°50'3 5.9
2018-Jul-19 07:30N 48°22' W 004°47'510.1
2018-Jul-19 07:00N 48°20' W 004°40'713.9
2018-Jul-19 06:30N 48°22' W 004°30'1 2.1
2018-Jul-19 06:00N 48°23' W 004°29'0 0.0
2018-Jul-19 05:30N 48°23' W 004°29'0 0.0
2018-Jul-19 05:00N 48°23' W 004°29'0 0.0
2018-Jul-19 04:30N 48°23' W 004°29'0 0.0
2018-Jul-19 04:00N 48°23' W 004°29'0 0.0
2018-Jul-19 03:30N 48°23' W 004°29'0 0.0
2018-Jul-19 03:00N 48°23' W 004°29'0 0.0
2018-Jul-19 02:30N 48°23' W 004°29'0 0.0
2018-Jul-19 02:00N 48°23' W 004°29'0 0.0
2018-Jul-19 01:30N 48°23' W 004°29'0 0.0
2018-Jul-19 01:00N 48°23' W 004°29'0 0.0
2018-Jul-19 00:30N 48°23' W 004°29'0 0.0
2018-Jul-19 00:00N 48°23' W 004°29'0 0.0
2018-Jul-18 23:29N 48°23' W 004°29'0 0.0
2018-Jul-18 23:00N 48°23' W 004°29'0 0.0
2018-Jul-18 22:28N 48°23' W 004°29'0 0.0
2018-Jul-18 22:00N 48°23' W 004°29'0 0.0
2018-Jul-18 21:30N 48°23' W 004°29'0 0.0
2018-Jul-18 21:00N 48°23' W 004°29'0 0.0
2018-Jul-18 20:30N 48°23' W 004°29'2 4.2
2018-Jul-18 20:01N 48°21' W 004°31'815.5
2018-Jul-18 19:30N 48°20' W 004°43'3 6.9
2018-Jul-18 19:00N 48°22' W 004°47'713.7
2018-Jul-18 18:30N 48°26' W 004°54'612.4
2018-Jul-18 18:01N 48°28' W 005°03'5 9.6
2018-Jul-18 17:29N 48°25' W 004°57'3 6.4
2018-Jul-18 16:59N 48°24' W 004°53'5 9.7
2018-Jul-18 16:30N 48°22' W 004°47'3 6.3
2018-Jul-18 16:01N 48°24' W 004°50'5 9.4
2018-Jul-18 15:30N 48°24' W 004°57'4 8.1
2018-Jul-18 15:01N 48°28' W 005°00'2 4.0
2018-Jul-18 14:30N 48°28' W 005°03'0 0.0
2018-Jul-18 13:30N 48°28' W 005°03'0 0.0
2018-Jul-18 13:00N 48°28' W 005°03'0 0.0
2018-Jul-18 12:30N 48°28' W 005°03'0 0.0
2018-Jul-18 12:00N 48°28' W 005°03'0 0.0
2018-Jul-18 11:30N 48°28' W 005°03'0 0.0
2018-Jul-18 10:30N 48°28' W 005°03'0 0.0
2018-Jul-18 10:00N 48°28' W 005°03'0 0.0
2018-Jul-18 09:30N 48°28' W 005°03'2 4.8
2018-Jul-18 09:00N 48°27' W 004°60'3 6.9
2018-Jul-18 08:30N 48°24' W 004°57'612.8
2018-Jul-18 08:01N 48°22' W 004°48'1 2.1
2018-Jul-18 07:30N 48°22' W 004°47'510.0
2018-Jul-18 07:00N 48°20' W 004°40'713.9
2018-Jul-18 06:30N 48°22' W 004°30'1 2.3
2018-Jul-18 06:01N 48°23' W 004°29'0 0.0
2018-Jul-18 05:30N 48°23' W 004°29'0 0.0
2018-Jul-18 04:58N 48°23' W 004°29'0 0.0
2018-Jul-18 04:28N 48°23' W 004°29'0 0.0
2018-Jul-18 03:58N 48°23' W 004°29'0 0.0
2018-Jul-18 03:30N 48°23' W 004°29'0 0.0
2018-Jul-18 03:00N 48°23' W 004°29'0 0.0
2018-Jul-18 02:28N 48°23' W 004°29'0 0.0
2018-Jul-18 01:56N 48°23' W 004°29'0 0.0
2018-Jul-18 01:29N 48°23' W 004°29'0 0.0
2018-Jul-18 00:58N 48°23' W 004°29'0 0.0
2018-Jul-18 00:29N 48°23' W 004°29'0 0.0
2018-Jul-17 23:59N 48°23' W 004°29'0 0.0
2018-Jul-17 23:30N 48°23' W 004°29'0 0.0
2018-Jul-17 23:00N 48°23' W 004°29'0 0.0
2018-Jul-17 22:28N 48°23' W 004°29'0 0.0
2018-Jul-17 22:00N 48°23' W 004°29'0 0.0
2018-Jul-17 21:29N 48°23' W 004°29'0 0.0
2018-Jul-17 20:55N 48°23' W 004°29'0 0.0
2018-Jul-17 20:28N 48°23' W 004°29'0 0.0
2018-Jul-17 19:58N 48°23' W 004°29'0 0.0
2018-Jul-17 19:28N 48°23' W 004°29'0 0.0
2018-Jul-17 19:00N 48°23' W 004°29'0 0.0
2018-Jul-17 18:29N 48°23' W 004°29'0 0.0
2018-Jul-17 17:59N 48°23' W 004°29'2 4.2
2018-Jul-17 17:30N 48°21' W 004°31'816.4
2018-Jul-17 17:00N 48°20' W 004°43'3 6.3
2018-Jul-17 16:30N 48°22' W 004°47'5 9.3
2018-Jul-17 16:00N 48°24' W 004°53'3 6.4
2018-Jul-17 15:31N 48°24' W 004°57'611.2
2018-Jul-17 15:00N 48°28' W 005°03'0 0.0
2018-Jul-17 14:30N 48°28' W 005°03'0 0.0
2018-Jul-17 14:01N 48°28' W 005°03'0 0.0
2018-Jul-17 13:30N 48°28' W 005°03'0 0.0
2018-Jul-17 12:59N 48°28' W 005°03'0 0.0
2018-Jul-17 12:30N 48°28' W 005°03'0 0.0
2018-Jul-17 12:00N 48°28' W 005°03'0 0.0
2018-Jul-17 11:30N 48°28' W 005°03'0 0.0
2018-Jul-17 11:00N 48°28' W 005°03'0 0.0
2018-Jul-17 10:30N 48°28' W 005°03'0 0.0
2018-Jul-17 10:00N 48°28' W 005°03'0 0.0
2018-Jul-17 09:30N 48°28' W 005°03'2 4.7
2018-Jul-17 09:00N 48°27' W 004°60'4 7.4
2018-Jul-17 08:30N 48°24' W 004°57'611.3
2018-Jul-17 08:00N 48°23' W 004°49'2 3.9
2018-Jul-17 07:29N 48°22' W 004°47'4 9.1
2018-Jul-17 07:00N 48°20' W 004°41'714.6
2018-Jul-17 06:30N 48°22' W 004°30'1 2.9
2018-Jul-17 06:01N 48°23' W 004°29'0 0.0
2018-Jul-17 05:27N 48°23' W 004°29'0 0.0
2018-Jul-17 05:00N 48°23' W 004°29'0 0.0
2018-Jul-17 04:30N 48°23' W 004°29'0 0.0
2018-Jul-17 03:59N 48°23' W 004°29'0 0.0
2018-Jul-17 03:30N 48°23' W 004°29'0 0.0
2018-Jul-17 02:54N 48°23' W 004°29'0 0.0
2018-Jul-17 02:28N 48°23' W 004°29'0 0.0
2018-Jul-17 01:54N 48°23' W 004°29'0 0.0
2018-Jul-17 01:30N 48°23' W 004°29'0 0.0
2018-Jul-17 00:58N 48°23' W 004°29'0 0.0
2018-Jul-17 00:29N 48°23' W 004°29'0 0.0
2018-Jul-16 23:29N 48°23' W 004°29'0 0.0
2018-Jul-16 22:53N 48°23' W 004°29'0 0.0
2018-Jul-16 22:28N 48°23' W 004°29'0 0.0
2018-Jul-16 21:58N 48°23' W 004°29'0 0.0
2018-Jul-16 21:28N 48°23' W 004°29'0 0.0
2018-Jul-16 20:57N 48°23' W 004°29'0 0.0
2018-Jul-16 20:28N 48°23' W 004°29'0 0.0
2018-Jul-16 19:58N 48°23' W 004°29'0 0.0
2018-Jul-16 19:28N 48°23' W 004°29'0 0.0
2018-Jul-16 18:59N 48°23' W 004°29'0 0.0
2018-Jul-16 18:29N 48°23' W 004°29'0 0.0
2018-Jul-16 17:59N 48°23' W 004°29'0 0.0
2018-Jul-16 17:30N 48°23' W 004°29'0 0.0
2018-Jul-16 16:59N 48°23' W 004°29'0 0.0
2018-Jul-16 16:28N 48°23' W 004°29'0 0.0
2018-Jul-16 15:58N 48°23' W 004°29'0 0.0
2018-Jul-16 15:31N 48°23' W 004°29'0 0.0
2018-Jul-16 15:00N 48°23' W 004°29'0 0.0
2018-Jul-16 14:29N 48°23' W 004°29'0 0.0
2018-Jul-16 13:59N 48°23' W 004°29'0 0.0
2018-Jul-16 13:30N 48°23' W 004°29'0 0.0
2018-Jul-16 13:00N 48°23' W 004°29'0 0.0
2018-Jul-16 12:29N 48°23' W 004°29'0 0.0
2018-Jul-16 11:59N 48°23' W 004°29'0 0.0
2018-Jul-16 11:29N 48°23' W 004°29'0 0.0
2018-Jul-16 11:00N 48°23' W 004°29'0 0.0
2018-Jul-16 10:29N 48°23' W 004°29'0 0.0
2018-Jul-16 10:00N 48°23' W 004°29'0 0.0
2018-Jul-16 09:24N 48°23' W 004°29'0 0.0
2018-Jul-16 09:00N 48°23' W 004°29'0 0.0
2018-Jul-16 08:28N 48°23' W 004°29'0 0.0
2018-Jul-16 07:58N 48°23' W 004°29'0 0.0
2018-Jul-16 07:30N 48°23' W 004°29'0 0.0
2018-Jul-16 06:58N 48°23' W 004°29'0 0.0
2018-Jul-16 06:29N 48°23' W 004°29'0 0.0
2018-Jul-16 05:59N 48°23' W 004°29'0 0.0
2018-Jul-16 05:27N 48°23' W 004°29'0 0.0
2018-Jul-16 05:00N 48°23' W 004°29'0 0.0
2018-Jul-16 04:26N 48°23' W 004°29'0 0.0
2018-Jul-16 03:58N 48°23' W 004°29'0 0.0
2018-Jul-16 03:30N 48°23' W 004°29'0 0.0
2018-Jul-16 02:58N 48°23' W 004°29'0 0.0
2018-Jul-16 02:27N 48°23' W 004°29'0 0.0
2018-Jul-16 01:58N 48°23' W 004°29'0 0.0
2018-Jul-16 01:29N 48°23' W 004°29'0 0.0
2018-Jul-16 01:00N 48°23' W 004°29'0 0.0
2018-Jul-16 00:28N 48°23' W 004°29'0 0.0
2018-Jul-15 23:59N 48°23' W 004°29'0 0.0
2018-Jul-15 23:30N 48°23' W 004°29'0 0.0
2018-Jul-15 23:00N 48°23' W 004°29'0 0.0
2018-Jul-15 22:30N 48°23' W 004°29'0 0.0
2018-Jul-15 21:58N 48°23' W 004°29'0 0.0
2018-Jul-15 21:30N 48°23' W 004°29'0 0.0
2018-Jul-15 21:00N 48°23' W 004°29'0 0.0
2018-Jul-15 20:30N 48°23' W 004°29'0 0.0
2018-Jul-15 20:00N 48°23' W 004°29'0 0.0
2018-Jul-15 19:29N 48°23' W 004°29'0 0.0
2018-Jul-15 18:59N 48°23' W 004°29'0 0.0
2018-Jul-15 18:24N 48°23' W 004°29'0 0.0
2018-Jul-15 17:58N 48°23' W 004°29'0 0.1
2018-Jul-15 17:30N 48°23' W 004°29'713.8
2018-Jul-15 17:01N 48°20' W 004°38'612.1
2018-Jul-15 16:31N 48°21' W 004°47'3 6.7
2018-Jul-15 16:01N 48°23' W 004°52'4 8.0
2018-Jul-15 15:30N 48°24' W 004°57'611.2
2018-Jul-15 15:00N 48°28' W 005°03'0 0.5
2018-Jul-15 14:30N 48°28' W 005°03'714.3
2018-Jul-15 14:01N 48°26' W 004°53'611.1
2018-Jul-15 13:30N 48°22' W 004°47'3 6.5
2018-Jul-15 13:00N 48°20' W 004°43'3 6.4
2018-Jul-15 12:30N 48°22' W 004°47'0 0.0
2018-Jul-15 12:00N 48°22' W 004°47'0 0.0
2018-Jul-15 11:30N 48°22' W 004°47'0 0.0
2018-Jul-15 11:01N 48°22' W 004°47'0 0.0
2018-Jul-15 10:30N 48°22' W 004°47'1 2.6
2018-Jul-15 10:00N 48°22' W 004°48'815.6
2018-Jul-15 09:30N 48°27' W 004°58'4 7.6
2018-Jul-15 09:01N 48°28' W 005°03'510.9
2018-Jul-15 08:30N 48°24' W 004°57'511.0
2018-Jul-15 08:00N 48°23' W 004°49'2 4.4
2018-Jul-15 07:30N 48°22' W 004°47'4 7.3
2018-Jul-15 07:00N 48°20' W 004°42'816.1
2018-Jul-15 06:29N 48°22' W 004°30'1 2.3
2018-Jul-15 06:00N 48°23' W 004°29'0 0.0
2018-Jul-15 05:28N 48°23' W 004°29'0 0.0
2018-Jul-15 04:58N 48°23' W 004°29'0 0.0
2018-Jul-15 04:29N 48°23' W 004°29'0 0.0
2018-Jul-15 03:58N 48°23' W 004°29'0 0.0
2018-Jul-15 03:29N 48°23' W 004°29'0 0.0
2018-Jul-15 03:00N 48°23' W 004°29'0 0.0
2018-Jul-15 02:30N 48°23' W 004°29'0 0.0
2018-Jul-15 01:58N 48°23' W 004°29'0 0.0
2018-Jul-15 01:28N 48°23' W 004°29'0 0.0
2018-Jul-15 00:58N 48°23' W 004°29'0 0.0
2018-Jul-15 00:26N 48°23' W 004°29'0 0.0
2018-Jul-14 23:59N 48°23' W 004°29'0 0.0
2018-Jul-14 23:28N 48°23' W 004°29'0 0.0
2018-Jul-14 23:00N 48°23' W 004°29'0 0.0
2018-Jul-14 22:30N 48°23' W 004°29'0 0.0
2018-Jul-14 21:58N 48°23' W 004°29'0 0.0
2018-Jul-14 21:29N 48°23' W 004°29'0 0.0
2018-Jul-14 21:00N 48°23' W 004°29'0 0.0
2018-Jul-14 20:30N 48°23' W 004°29'0 0.0
2018-Jul-14 19:59N 48°23' W 004°29'0 0.0
2018-Jul-14 19:24N 48°23' W 004°29'0 0.0
2018-Jul-14 18:58N 48°23' W 004°29'0 0.0
2018-Jul-14 18:28N 48°23' W 004°29'0 0.0
2018-Jul-14 17:55N 48°23' W 004°29'1 3.1
2018-Jul-14 17:31N 48°22' W 004°30'714.7
2018-Jul-14 17:01N 48°20' W 004°41'4 9.0
2018-Jul-14 16:31N 48°22' W 004°47'4 7.7
2018-Jul-14 16:00N 48°23' W 004°52'4 7.3
2018-Jul-14 15:31N 48°24' W 004°57'611.2
2018-Jul-14 15:00N 48°28' W 005°03'0 0.0
2018-Jul-14 14:30N 48°28' W 005°03'4 4.1
2018-Jul-14 13:30N 48°26' W 004°58'3 5.1
2018-Jul-14 13:01N 48°24' W 004°55'612.4
2018-Jul-14 12:30N 48°22' W 004°47'0 0.0
2018-Jul-14 11:59N 48°22' W 004°47'0 0.0
2018-Jul-14 11:30N 48°22' W 004°47'0 0.0
2018-Jul-14 11:00N 48°22' W 004°47'2 4.7
2018-Jul-14 10:30N 48°23' W 004°49'714.7
2018-Jul-14 10:01N 48°27' W 004°59'3 6.5
2018-Jul-14 09:31N 48°28' W 005°03'2 3.4
2018-Jul-14 09:00N 48°28' W 005°01'4 8.7
2018-Jul-14 08:30N 48°24' W 004°57'510.7
2018-Jul-14 08:00N 48°23' W 004°49'2 4.7
2018-Jul-14 07:30N 48°22' W 004°47'3 6.8
2018-Jul-14 07:00N 48°20' W 004°43'816.7
2018-Jul-14 06:30N 48°22' W 004°31'2 3.0
2018-Jul-14 06:00N 48°23' W 004°29'0 0.0
2018-Jul-14 05:28N 48°23' W 004°29'0 0.0
2018-Jul-14 05:00N 48°23' W 004°29'0 0.0
2018-Jul-14 04:30N 48°23' W 004°29'0 0.0
2018-Jul-14 04:00N 48°23' W 004°29'0 0.0
2018-Jul-14 03:30N 48°23' W 004°29'0 0.0
2018-Jul-14 03:00N 48°23' W 004°29'0 0.0
2018-Jul-14 02:30N 48°23' W 004°29'0 0.0
2018-Jul-14 02:00N 48°23' W 004°29'0 0.0
2018-Jul-14 01:28N 48°23' W 004°29'0 0.0
2018-Jul-14 00:58N 48°23' W 004°29'0 0.0
2018-Jul-14 00:28N 48°23' W 004°29'0 0.0
2018-Jul-13 23:57N 48°23' W 004°29'0 0.0
2018-Jul-13 23:30N 48°23' W 004°29'0 0.0
2018-Jul-13 23:00N 48°23' W 004°29'0 0.0
2018-Jul-13 22:28N 48°23' W 004°29'0 0.0
2018-Jul-13 22:00N 48°23' W 004°29'0 0.0
2018-Jul-13 21:26N 48°23' W 004°29'0 0.0
2018-Jul-13 20:54N 48°23' W 004°29'0 0.0
2018-Jul-13 20:30N 48°23' W 004°29'2 4.2
2018-Jul-13 20:00N 48°21' W 004°31'713.9
2018-Jul-13 19:30N 48°20' W 004°41'4 7.8
2018-Jul-13 19:00N 48°22' W 004°47'714.7
2018-Jul-13 18:31N 48°26' W 004°55'611.2
2018-Jul-13 17:59N 48°28' W 005°03'4 7.5
2018-Jul-13 17:30N 48°26' W 004°59'3 6.6
2018-Jul-13 17:00N 48°24' W 004°55'611.9
2018-Jul-13 16:30N 48°22' W 004°47'0 0.0
2018-Jul-13 16:00N 48°22' W 004°47'713.8
2018-Jul-13 15:31N 48°25' W 004°56'3 6.1
2018-Jul-13 15:00N 48°27' W 004°60'3 2.8
2018-Jul-13 13:58N 48°28' W 005°03'0 0.0
2018-Jul-13 13:28N 48°28' W 005°03'0 0.0
2018-Jul-13 12:58N 48°28' W 005°03'0 0.0
2018-Jul-13 12:29N 48°28' W 005°03'0 0.0
2018-Jul-13 12:00N 48°28' W 005°03'  
Track history (hours):
 
Tides and Currents Weather Stations Pressure Air Temp Water Temp Dewpoint Dewpoint Depression Visibility Wind Speed Wind Dir Waves Ship Positions

Fromveur II

Last reported at 2018-Jul-23 11:29 UTC. Time now 2018-Jul-23 11:35 UTC.
Position N 48°28' W 005°03'.

Length 45 m; draft 2.8 m.

Type: Ship. MMSI: 228017700.

Date/timePositionNaut miles runAvg speedWind from/ knotsBaromVisibWave heightAir tempDewpointWater temp
2018-Jul-23 11:29N 48°28' W 005°03'0 0.0
2018-Jul-23 10:59N 48°28' W 005°03'0 0.0
2018-Jul-23 10:23N 48°28' W 005°03'0 0.0
2018-Jul-23 09:59N 48°28' W 005°03'0 0.0
2018-Jul-23 09:29N 48°28' W 005°03'0 1.0
2018-Jul-23 09:00N 48°28' W 005°03'5 9.7
2018-Jul-23 08:28N 48°24' W 004°57'510.8
2018-Jul-23 07:59N 48°23' W 004°50'3 5.4
2018-Jul-23 07:29N 48°22' W 004°47'510.7
2018-Jul-23 07:00N 48°19' W 004°40'714.6
2018-Jul-23 06:30N 48°22' W 004°30'1 2.5
2018-Jul-23 06:00N 48°23' W 004°29'0 0.0
2018-Jul-23 05:30N 48°23' W 004°29'0 0.0
2018-Jul-23 04:59N 48°23' W 004°29'0 0.0
2018-Jul-23 04:30N 48°23' W 004°29'0 0.0
2018-Jul-23 03:59N 48°23' W 004°29'0 0.0
2018-Jul-23 03:29N 48°23' W 004°29'0 0.0
2018-Jul-23 02:59N 48°23' W 004°29'0 0.0
2018-Jul-23 02:29N 48°23' W 004°29'0 0.0
2018-Jul-23 02:00N 48°23' W 004°29'0 0.0
2018-Jul-23 01:25N 48°23' W 004°29'0 0.0
2018-Jul-23 00:58N 48°23' W 004°29'0 0.0
2018-Jul-23 00:23N 48°23' W 004°29'0 0.0
2018-Jul-23 00:00N 48°23' W 004°29'0 0.0
2018-Jul-22 23:30N 48°23' W 004°29'0 0.0
2018-Jul-22 22:58N 48°23' W 004°29'0 0.0
2018-Jul-22 22:28N 48°23' W 004°29'0 0.0
2018-Jul-22 21:58N 48°23' W 004°29'0 0.0
2018-Jul-22 21:28N 48°23' W 004°29'0 0.0
2018-Jul-22 21:00N 48°23' W 004°29'0 0.0
2018-Jul-22 20:29N 48°23' W 004°29'0 0.0
2018-Jul-22 19:57N 48°23' W 004°29'0 0.0
2018-Jul-22 19:26N 48°23' W 004°29'0 0.0
2018-Jul-22 18:57N 48°23' W 004°29'0 0.0
2018-Jul-22 18:27N 48°23' W 004°29'0 0.0
2018-Jul-22 17:57N 48°23' W 004°29'2 3.5
2018-Jul-22 17:30N 48°22' W 004°31'714.2
2018-Jul-22 17:00N 48°20' W 004°41'4 8.5
2018-Jul-22 16:30N 48°22' W 004°47'4 8.3
2018-Jul-22 16:00N 48°24' W 004°51'9 8.7
2018-Jul-22 15:00N 48°28' W 005°03'0 0.0
2018-Jul-22 14:23N 48°28' W 005°03'0 0.0
2018-Jul-22 13:59N 48°28' W 005°03'0 0.0
2018-Jul-22 13:27N 48°28' W 005°03'0 0.0
2018-Jul-22 12:58N 48°28' W 005°03'0 0.0
2018-Jul-22 12:29N 48°28' W 005°03'0 0.0
2018-Jul-22 11:58N 48°28' W 005°03'0 0.0
2018-Jul-22 11:28N 48°28' W 005°03'0 0.0
2018-Jul-22 11:00N 48°28' W 005°03'0 0.0
2018-Jul-22 10:24N 48°28' W 005°03'0 0.0
2018-Jul-22 09:59N 48°28' W 005°03'0 0.0
2018-Jul-22 09:30N 48°28' W 005°03'1 1.8
2018-Jul-22 09:00N 48°28' W 005°02'5 9.2
2018-Jul-22 08:27N 48°24' W 004°57'511.2
2018-Jul-22 08:00N 48°24' W 004°50'3 5.7
2018-Jul-22 07:30N 48°22' W 004°47'611.1
2018-Jul-22 07:01N 48°20' W 004°39'713.8
2018-Jul-22 06:31N 48°22' W 004°29'1 1.4
2018-Jul-22 06:00N 48°23' W 004°29'0 0.0
2018-Jul-22 05:29N 48°23' W 004°29'0 0.0
2018-Jul-22 05:00N 48°23' W 004°29'0 0.0
2018-Jul-22 04:29N 48°23' W 004°29'0 0.0
2018-Jul-22 03:59N 48°23' W 004°29'0 0.0
2018-Jul-22 03:28N 48°23' W 004°29'0 0.0
2018-Jul-22 02:55N 48°23' W 004°29'0 0.0
2018-Jul-22 02:30N 48°23' W 004°29'0 0.0
2018-Jul-22 02:00N 48°23' W 004°29'0 0.0
2018-Jul-22 01:28N 48°23' W 004°29'0 0.0
2018-Jul-22 00:53N 48°23' W 004°29'0 0.0
2018-Jul-22 00:29N 48°23' W 004°29'0 0.0
2018-Jul-21 23:59N 48°23' W 004°29'0 0.0
2018-Jul-21 23:28N 48°23' W 004°29'0 0.0
2018-Jul-21 22:57N 48°23' W 004°29'0 0.0
2018-Jul-21 22:30N 48°23' W 004°29'0 0.0
2018-Jul-21 22:00N 48°23' W 004°29'0 0.0
2018-Jul-21 21:28N 48°23' W 004°29'0 0.0
2018-Jul-21 21:00N 48°23' W 004°29'0 0.0
2018-Jul-21 20:30N 48°23' W 004°29'0 0.0
2018-Jul-21 20:00N 48°23' W 004°29'0 0.0
2018-Jul-21 19:29N 48°23' W 004°29'0 0.0
2018-Jul-21 19:00N 48°23' W 004°29'0 0.0
2018-Jul-21 18:30N 48°23' W 004°29'0 0.0
2018-Jul-21 17:59N 48°23' W 004°29'0 0.5
2018-Jul-21 17:30N 48°23' W 004°29'713.8
2018-Jul-21 17:00N 48°20' W 004°39'612.0
2018-Jul-21 16:30N 48°21' W 004°47'3 6.8
2018-Jul-21 16:00N 48°24' W 004°51'4 9.0
2018-Jul-21 15:30N 48°24' W 004°57'611.1
2018-Jul-21 15:00N 48°28' W 005°03'0 0.0
2018-Jul-21 14:28N 48°28' W 005°03'4 3.9
2018-Jul-21 13:30N 48°26' W 004°58'3 6.7
2018-Jul-21 13:00N 48°24' W 004°54'610.9
2018-Jul-21 12:29N 48°22' W 004°47'0 0.0
2018-Jul-21 11:59N 48°22' W 004°47'0 0.0
2018-Jul-21 11:29N 48°22' W 004°47'0 0.0
2018-Jul-21 11:00N 48°22' W 004°47'2 5.0
2018-Jul-21 10:30N 48°23' W 004°50'815.0
2018-Jul-21 10:00N 48°28' W 004°59'3 5.8
2018-Jul-21 09:28N 48°28' W 005°03'2 3.7
2018-Jul-21 08:58N 48°28' W 005°01'4 7.8
2018-Jul-21 08:27N 48°24' W 004°57'511.0
2018-Jul-21 08:00N 48°24' W 004°50'3 5.7
2018-Jul-21 07:30N 48°22' W 004°47'510.7
2018-Jul-21 07:00N 48°20' W 004°39'713.2
2018-Jul-21 06:30N 48°22' W 004°30'1 2.1
2018-Jul-21 05:59N 48°23' W 004°29'0 0.0
2018-Jul-21 05:28N 48°23' W 004°29'0 0.0
2018-Jul-21 04:58N 48°23' W 004°29'0 0.0
2018-Jul-21 04:28N 48°23' W 004°29'0 0.0
2018-Jul-21 03:58N 48°23' W 004°29'0 0.0
2018-Jul-21 03:30N 48°23' W 004°29'0 0.0
2018-Jul-21 03:00N 48°23' W 004°29'0 0.0
2018-Jul-21 02:28N 48°23' W 004°29'0 0.0
2018-Jul-21 01:58N 48°23' W 004°29'0 0.0
2018-Jul-21 01:28N 48°23' W 004°29'0 0.0
2018-Jul-21 01:00N 48°23' W 004°29'0 0.0
2018-Jul-21 00:30N 48°23' W 004°29'0 0.0
2018-Jul-21 00:00N 48°23' W 004°29'0 0.0
2018-Jul-20 23:29N 48°23' W 004°29'0 0.0
2018-Jul-20 23:00N 48°23' W 004°29'0 0.0
2018-Jul-20 22:30N 48°23' W 004°29'0 0.0
2018-Jul-20 22:00N 48°23' W 004°29'0 0.0
2018-Jul-20 21:27N 48°23' W 004°29'0 0.0
2018-Jul-20 21:00N 48°23' W 004°29'0 0.0
2018-Jul-20 20:30N 48°23' W 004°29'4 8.0
2018-Jul-20 20:01N 48°21' W 004°34'815.7
2018-Jul-20 19:31N 48°19' W 004°46'4 7.2
2018-Jul-20 19:01N 48°22' W 004°48'814.8
2018-Jul-20 18:30N 48°27' W 004°57'4 8.7
2018-Jul-20 18:01N 48°28' W 005°03'5 9.1
2018-Jul-20 17:30N 48°26' W 004°57'3 5.9
2018-Jul-20 17:00N 48°24' W 004°54'510.6
2018-Jul-20 16:30N 48°22' W 004°47'1 2.2
2018-Jul-20 16:00N 48°22' W 004°48'612.7
2018-Jul-20 15:31N 48°25' W 004°57'3 6.9
2018-Jul-20 15:00N 48°27' W 005°00'2 4.5
2018-Jul-20 14:30N 48°28' W 005°03'0 0.0
2018-Jul-20 14:00N 48°28' W 005°03'0 0.0
2018-Jul-20 13:30N 48°28' W 005°03'0 0.0
2018-Jul-20 13:00N 48°28' W 005°03'0 0.0
2018-Jul-20 12:30N 48°28' W 005°03'0 0.0
2018-Jul-20 12:00N 48°28' W 005°03'0 0.0
2018-Jul-20 11:30N 48°28' W 005°03'0 0.0
2018-Jul-20 11:00N 48°28' W 005°03'0 0.0
2018-Jul-20 10:30N 48°28' W 005°03'0 0.0
2018-Jul-20 10:00N 48°28' W 005°03'0 0.0
2018-Jul-20 09:29N 48°28' W 005°03'1 1.0
2018-Jul-20 09:00N 48°28' W 005°03'510.5
2018-Jul-20 08:30N 48°24' W 004°57'510.3
2018-Jul-20 08:00N 48°23' W 004°50'3 5.3
2018-Jul-20 07:30N 48°22' W 004°47'5 9.3
2018-Jul-20 07:00N 48°20' W 004°40'813.6
2018-Jul-20 06:26N 48°22' W 004°29'1 1.9
2018-Jul-20 06:00N 48°23' W 004°29'0 0.0
2018-Jul-20 05:27N 48°23' W 004°29'0 0.0
2018-Jul-20 05:00N 48°23' W 004°29'0 0.0
2018-Jul-20 04:30N 48°23' W 004°29'0 0.0
2018-Jul-20 03:59N 48°23' W 004°29'0 0.0
2018-Jul-20 03:30N 48°23' W 004°29'0 0.0
2018-Jul-20 03:00N 48°23' W 004°29'0 0.0
2018-Jul-20 02:30N 48°23' W 004°29'0 0.0
2018-Jul-20 01:57N 48°23' W 004°29'0 0.0
2018-Jul-20 01:28N 48°23' W 004°29'0 0.0
2018-Jul-20 01:00N 48°23' W 004°29'0 0.0
2018-Jul-20 00:28N 48°23' W 004°29'0 0.0
2018-Jul-19 23:58N 48°23' W 004°29'0 0.0
2018-Jul-19 23:26N 48°23' W 004°29'0 0.0
2018-Jul-19 22:55N 48°23' W 004°29'0 0.0
2018-Jul-19 22:29N 48°23' W 004°29'0 0.0
2018-Jul-19 22:00N 48°23' W 004°29'0 0.0
2018-Jul-19 21:30N 48°23' W 004°29'0 0.0
2018-Jul-19 20:57N 48°23' W 004°29'0 0.0
2018-Jul-19 20:28N 48°23' W 004°29'0 0.0
2018-Jul-19 19:58N 48°23' W 004°29'0 0.0
2018-Jul-19 19:30N 48°23' W 004°29'0 0.0
2018-Jul-19 19:00N 48°23' W 004°29'0 0.0
2018-Jul-19 18:31N 48°23' W 004°29'0 0.0
2018-Jul-19 18:01N 48°23' W 004°29'3 5.2
2018-Jul-19 17:30N 48°21' W 004°32'815.9
2018-Jul-19 17:00N 48°20' W 004°44'3 5.6
2018-Jul-19 16:30N 48°22' W 004°47'5 9.8
2018-Jul-19 16:00N 48°24' W 004°53'3 6.0
2018-Jul-19 15:30N 48°24' W 004°57'610.9
2018-Jul-19 14:59N 48°28' W 005°03'0 0.0
2018-Jul-19 14:00N 48°28' W 005°03'0 0.0
2018-Jul-19 13:31N 48°28' W 005°03'0 0.0
2018-Jul-19 13:00N 48°28' W 005°03'0 0.0
2018-Jul-19 12:30N 48°28' W 005°03'0 0.0
2018-Jul-19 12:00N 48°28' W 005°03'0 0.0
2018-Jul-19 11:31N 48°28' W 005°03'0 0.0
2018-Jul-19 11:00N 48°28' W 005°03'0 0.0
2018-Jul-19 10:29N 48°28' W 005°03'0 0.0
2018-Jul-19 10:00N 48°28' W 005°03'0 0.0
2018-Jul-19 09:30N 48°28' W 005°03'2 3.5
2018-Jul-19 09:00N 48°28' W 005°01'4 8.8
2018-Jul-19 08:31N 48°24' W 004°57'5 9.7
2018-Jul-19 08:00N 48°24' W 004°50'3 5.9
2018-Jul-19 07:30N 48°22' W 004°47'510.1
2018-Jul-19 07:00N 48°20' W 004°40'713.9
2018-Jul-19 06:30N 48°22' W 004°30'1 2.1
2018-Jul-19 06:00N 48°23' W 004°29'0 0.0
2018-Jul-19 05:30N 48°23' W 004°29'0 0.0
2018-Jul-19 05:00N 48°23' W 004°29'0 0.0
2018-Jul-19 04:30N 48°23' W 004°29'0 0.0
2018-Jul-19 04:00N 48°23' W 004°29'0 0.0
2018-Jul-19 03:30N 48°23' W 004°29'0 0.0
2018-Jul-19 03:00N 48°23' W 004°29'0 0.0
2018-Jul-19 02:30N 48°23' W 004°29'0 0.0
2018-Jul-19 02:00N 48°23' W 004°29'0 0.0
2018-Jul-19 01:30N 48°23' W 004°29'0 0.0
2018-Jul-19 01:00N 48°23' W 004°29'0 0.0
2018-Jul-19 00:30N 48°23' W 004°29'0 0.0
2018-Jul-19 00:00N 48°23' W 004°29'0 0.0
2018-Jul-18 23:29N 48°23' W 004°29'0 0.0
2018-Jul-18 23:00N 48°23' W 004°29'0 0.0
2018-Jul-18 22:28N 48°23' W 004°29'0 0.0
2018-Jul-18 22:00N 48°23' W 004°29'0 0.0
2018-Jul-18 21:30N 48°23' W 004°29'0 0.0
2018-Jul-18 21:00N 48°23' W 004°29'0 0.0
2018-Jul-18 20:30N 48°23' W 004°29'2 4.2
2018-Jul-18 20:01N 48°21' W 004°31'815.5
2018-Jul-18 19:30N 48°20' W 004°43'3 6.9
2018-Jul-18 19:00N 48°22' W 004°47'713.7
2018-Jul-18 18:30N 48°26' W 004°54'612.4
2018-Jul-18 18:01N 48°28' W 005°03'5 9.6
2018-Jul-18 17:29N 48°25' W 004°57'3 6.4
2018-Jul-18 16:59N 48°24' W 004°53'5 9.7
2018-Jul-18 16:30N 48°22' W 004°47'3 6.3
2018-Jul-18 16:01N 48°24' W 004°50'5 9.4
2018-Jul-18 15:30N 48°24' W 004°57'4 8.1
2018-Jul-18 15:01N 48°28' W 005°00'2 4.0
2018-Jul-18 14:30N 48°28' W 005°03'0 0.0
2018-Jul-18 13:30N 48°28' W 005°03'0 0.0
2018-Jul-18 13:00N 48°28' W 005°03'0 0.0
2018-Jul-18 12:30N 48°28' W 005°03'0 0.0
2018-Jul-18 12:00N 48°28' W 005°03'0 0.0
2018-Jul-18 11:30N 48°28' W 005°03'0 0.0
2018-Jul-18 10:30N 48°28' W 005°03'0 0.0
2018-Jul-18 10:00N 48°28' W 005°03'0 0.0
2018-Jul-18 09:30N 48°28' W 005°03'2 4.8
2018-Jul-18 09:00N 48°27' W 004°60'3 6.9
2018-Jul-18 08:30N 48°24' W 004°57'612.8
2018-Jul-18 08:01N 48°22' W 004°48'1 2.1
2018-Jul-18 07:30N 48°22' W 004°47'510.0
2018-Jul-18 07:00N 48°20' W 004°40'713.9
2018-Jul-18 06:30N 48°22' W 004°30'1 2.3
2018-Jul-18 06:01N 48°23' W 004°29'0 0.0
2018-Jul-18 05:30N 48°23' W 004°29'0 0.0
2018-Jul-18 04:58N 48°23' W 004°29'0 0.0
2018-Jul-18 04:28N 48°23' W 004°29'0 0.0
2018-Jul-18 03:58N 48°23' W 004°29'0 0.0
2018-Jul-18 03:30N 48°23' W 004°29'0 0.0
2018-Jul-18 03:00N 48°23' W 004°29'0 0.0
2018-Jul-18 02:28N 48°23' W 004°29'0 0.0
2018-Jul-18 01:56N 48°23' W 004°29'0 0.0
2018-Jul-18 01:29N 48°23' W 004°29'0 0.0
2018-Jul-18 00:58N 48°23' W 004°29'0 0.0
2018-Jul-18 00:29N 48°23' W 004°29'0 0.0
2018-Jul-17 23:59N 48°23' W 004°29'0 0.0
2018-Jul-17 23:30N 48°23' W 004°29'0 0.0
2018-Jul-17 23:00N 48°23' W 004°29'0 0.0
2018-Jul-17 22:28N 48°23' W 004°29'0 0.0
2018-Jul-17 22:00N 48°23' W 004°29'0 0.0
2018-Jul-17 21:29N 48°23' W 004°29'0 0.0
2018-Jul-17 20:55N 48°23' W 004°29'0 0.0
2018-Jul-17 20:28N 48°23' W 004°29'0 0.0
2018-Jul-17 19:58N 48°23' W 004°29'0 0.0
2018-Jul-17 19:28N 48°23' W 004°29'0 0.0
2018-Jul-17 19:00N 48°23' W 004°29'0 0.0
2018-Jul-17 18:29N 48°23' W 004°29'0 0.0
2018-Jul-17 17:59N 48°23' W 004°29'2 4.2
2018-Jul-17 17:30N 48°21' W 004°31'816.4
2018-Jul-17 17:00N 48°20' W 004°43'3 6.3
2018-Jul-17 16:30N 48°22' W 004°47'5 9.3
2018-Jul-17 16:00N 48°24' W 004°53'3 6.4
2018-Jul-17 15:31N 48°24' W 004°57'611.2
2018-Jul-17 15:00N 48°28' W 005°03'0 0.0
2018-Jul-17 14:30N 48°28' W 005°03'0 0.0
2018-Jul-17 14:01N 48°28' W 005°03'0 0.0
2018-Jul-17 13:30N 48°28' W 005°03'0 0.0
2018-Jul-17 12:59N 48°28' W 005°03'0 0.0
2018-Jul-17 12:30N 48°28' W 005°03'0 0.0
2018-Jul-17 12:00N 48°28' W 005°03'0 0.0
2018-Jul-17 11:30N 48°28' W 005°03'0 0.0
2018-Jul-17 11:00N 48°28' W 005°03'0 0.0
2018-Jul-17 10:30N 48°28' W 005°03'0 0.0
2018-Jul-17 10:00N 48°28' W 005°03'0 0.0
2018-Jul-17 09:30N 48°28' W 005°03'2 4.7
2018-Jul-17 09:00N 48°27' W 004°60'4 7.4
2018-Jul-17 08:30N 48°24' W 004°57'611.3
2018-Jul-17 08:00N 48°23' W 004°49'2 3.9
2018-Jul-17 07:29N 48°22' W 004°47'4 9.1
2018-Jul-17 07:00N 48°20' W 004°41'714.6
2018-Jul-17 06:30N 48°22' W 004°30'1 2.9
2018-Jul-17 06:01N 48°23' W 004°29'0 0.0
2018-Jul-17 05:27N 48°23' W 004°29'0 0.0
2018-Jul-17 05:00N 48°23' W 004°29'0 0.0
2018-Jul-17 04:30N 48°23' W 004°29'0 0.0
2018-Jul-17 03:59N 48°23' W 004°29'0 0.0
2018-Jul-17 03:30N 48°23' W 004°29'0 0.0
2018-Jul-17 02:54N 48°23' W 004°29'0 0.0
2018-Jul-17 02:28N 48°23' W 004°29'0 0.0
2018-Jul-17 01:54N 48°23' W 004°29'0 0.0
2018-Jul-17 01:30N 48°23' W 004°29'0 0.0
2018-Jul-17 00:58N 48°23' W 004°29'0 0.0
2018-Jul-17 00:29N 48°23' W 004°29'0 0.0
2018-Jul-16 23:29N 48°23' W 004°29'0 0.0
2018-Jul-16 22:53N 48°23' W 004°29'0 0.0
2018-Jul-16 22:28N 48°23' W 004°29'0 0.0
2018-Jul-16 21:58N 48°23' W 004°29'0 0.0
2018-Jul-16 21:28N 48°23' W 004°29'0 0.0
2018-Jul-16 20:57N 48°23' W 004°29'0 0.0
2018-Jul-16 20:28N 48°23' W 004°29'0 0.0
2018-Jul-16 19:58N 48°23' W 004°29'0 0.0
2018-Jul-16 19:28N 48°23' W 004°29'0 0.0
2018-Jul-16 18:59N 48°23' W 004°29'0 0.0
2018-Jul-16 18:29N 48°23' W 004°29'0 0.0
2018-Jul-16 17:59N 48°23' W 004°29'0 0.0
2018-Jul-16 17:30N 48°23' W 004°29'0 0.0
2018-Jul-16 16:59N 48°23' W 004°29'0 0.0
2018-Jul-16 16:28N 48°23' W 004°29'0 0.0
2018-Jul-16 15:58N 48°23' W 004°29'0 0.0
2018-Jul-16 15:31N 48°23' W 004°29'0 0.0
2018-Jul-16 15:00N 48°23' W 004°29'0 0.0
2018-Jul-16 14:29N 48°23' W 004°29'0 0.0
2018-Jul-16 13:59N 48°23' W 004°29'0 0.0
2018-Jul-16 13:30N 48°23' W 004°29'0 0.0
2018-Jul-16 13:00N 48°23' W 004°29'0 0.0
2018-Jul-16 12:29N 48°23' W 004°29'0 0.0
2018-Jul-16 11:59N 48°23' W 004°29'0 0.0
2018-Jul-16 11:29N 48°23' W 004°29'0 0.0
2018-Jul-16 11:00N 48°23' W 004°29'0 0.0
2018-Jul-16 10:29N 48°23' W 004°29'0 0.0
2018-Jul-16 10:00N 48°23' W 004°29'0 0.0
2018-Jul-16 09:24N 48°23' W 004°29'0 0.0
2018-Jul-16 09:00N 48°23' W 004°29'0 0.0
2018-Jul-16 08:28N 48°23' W 004°29'0 0.0
2018-Jul-16 07:58N 48°23' W 004°29'0 0.0
2018-Jul-16 07:30N 48°23' W 004°29'0 0.0
2018-Jul-16 06:58N 48°23' W 004°29'0 0.0
2018-Jul-16 06:29N 48°23' W 004°29'0 0.0
2018-Jul-16 05:59N 48°23' W 004°29'0 0.0
2018-Jul-16 05:27N 48°23' W 004°29'0 0.0
2018-Jul-16 05:00N 48°23' W 004°29'0 0.0
2018-Jul-16 04:26N 48°23' W 004°29'0 0.0
2018-Jul-16 03:58N 48°23' W 004°29'0 0.0
2018-Jul-16 03:30N 48°23' W 004°29'0 0.0
2018-Jul-16 02:58N 48°23' W 004°29'0 0.0
2018-Jul-16 02:27N 48°23' W 004°29'0 0.0
2018-Jul-16 01:58N 48°23' W 004°29'0 0.0
2018-Jul-16 01:29N 48°23' W 004°29'0 0.0
2018-Jul-16 01:00N 48°23' W 004°29'0 0.0
2018-Jul-16 00:28N 48°23' W 004°29'0 0.0
2018-Jul-15 23:59N 48°23' W 004°29'0 0.0
2018-Jul-15 23:30N 48°23' W 004°29'0 0.0
2018-Jul-15 23:00N 48°23' W 004°29'0 0.0
2018-Jul-15 22:30N 48°23' W 004°29'0 0.0
2018-Jul-15 21:58N 48°23' W 004°29'0 0.0
2018-Jul-15 21:30N 48°23' W 004°29'0 0.0
2018-Jul-15 21:00N 48°23' W 004°29'0 0.0
2018-Jul-15 20:30N 48°23' W 004°29'0 0.0
2018-Jul-15 20:00N 48°23' W 004°29'0 0.0
2018-Jul-15 19:29N 48°23' W 004°29'0 0.0
2018-Jul-15 18:59N 48°23' W 004°29'0 0.0
2018-Jul-15 18:24N 48°23' W 004°29'0 0.0
2018-Jul-15 17:58N 48°23' W 004°29'0 0.1
2018-Jul-15 17:30N 48°23' W 004°29'713.8
2018-Jul-15 17:01N 48°20' W 004°38'612.1
2018-Jul-15 16:31N 48°21' W 004°47'3 6.7
2018-Jul-15 16:01N 48°23' W 004°52'4 8.0
2018-Jul-15 15:30N 48°24' W 004°57'611.2
2018-Jul-15 15:00N 48°28' W 005°03'0 0.5
2018-Jul-15 14:30N 48°28' W 005°03'714.3
2018-Jul-15 14:01N 48°26' W 004°53'611.1
2018-Jul-15 13:30N 48°22' W 004°47'3 6.5
2018-Jul-15 13:00N 48°20' W 004°43'3 6.4
2018-Jul-15 12:30N 48°22' W 004°47'0 0.0
2018-Jul-15 12:00N 48°22' W 004°47'0 0.0
2018-Jul-15 11:30N 48°22' W 004°47'0 0.0
2018-Jul-15 11:01N 48°22' W 004°47'0 0.0
2018-Jul-15 10:30N 48°22' W 004°47'1 2.6
2018-Jul-15 10:00N 48°22' W 004°48'815.6
2018-Jul-15 09:30N 48°27' W 004°58'4 7.6
2018-Jul-15 09:01N 48°28' W 005°03'510.9
2018-Jul-15 08:30N 48°24' W 004°57'511.0
2018-Jul-15 08:00N 48°23' W 004°49'2 4.4
2018-Jul-15 07:30N 48°22' W 004°47'4 7.3
2018-Jul-15 07:00N 48°20' W 004°42'816.1
2018-Jul-15 06:29N 48°22' W 004°30'1 2.3
2018-Jul-15 06:00N 48°23' W 004°29'0 0.0
2018-Jul-15 05:28N 48°23' W 004°29'0 0.0
2018-Jul-15 04:58N 48°23' W 004°29'0 0.0
2018-Jul-15 04:29N 48°23' W 004°29'0 0.0
2018-Jul-15 03:58N 48°23' W 004°29'0 0.0
2018-Jul-15 03:29N 48°23' W 004°29'0 0.0
2018-Jul-15 03:00N 48°23' W 004°29'0 0.0
2018-Jul-15 02:30N 48°23' W 004°29'0 0.0
2018-Jul-15 01:58N 48°23' W 004°29'0 0.0
2018-Jul-15 01:28N 48°23' W 004°29'0 0.0
2018-Jul-15 00:58N 48°23' W 004°29'0 0.0
2018-Jul-15 00:26N 48°23' W 004°29'0 0.0
2018-Jul-14 23:59N 48°23' W 004°29'0 0.0
2018-Jul-14 23:28N 48°23' W 004°29'0 0.0
2018-Jul-14 23:00N 48°23' W 004°29'0 0.0
2018-Jul-14 22:30N 48°23' W 004°29'0 0.0
2018-Jul-14 21:58N 48°23' W 004°29'0 0.0
2018-Jul-14 21:29N 48°23' W 004°29'0 0.0
2018-Jul-14 21:00N 48°23' W 004°29'0 0.0
2018-Jul-14 20:30N 48°23' W 004°29'0 0.0
2018-Jul-14 19:59N 48°23' W 004°29'0 0.0
2018-Jul-14 19:24N 48°23' W 004°29'0 0.0
2018-Jul-14 18:58N 48°23' W 004°29'0 0.0
2018-Jul-14 18:28N 48°23' W 004°29'0 0.0
2018-Jul-14 17:55N 48°23' W 004°29'1 3.1
2018-Jul-14 17:31N 48°22' W 004°30'714.7
2018-Jul-14 17:01N 48°20' W 004°41'4 9.0
2018-Jul-14 16:31N 48°22' W 004°47'4 7.7
2018-Jul-14 16:00N 48°23' W 004°52'4 7.3
2018-Jul-14 15:31N 48°24' W 004°57'611.2
2018-Jul-14 15:00N 48°28' W 005°03'0 0.0
2018-Jul-14 14:30N 48°28' W 005°03'4 4.1
2018-Jul-14 13:30N 48°26' W 004°58'3 5.1
2018-Jul-14 13:01N 48°24' W 004°55'612.4
2018-Jul-14 12:30N 48°22' W 004°47'0 0.0
2018-Jul-14 11:59N 48°22' W 004°47'0 0.0
2018-Jul-14 11:30N 48°22' W 004°47'0 0.0
2018-Jul-14 11:00N 48°22' W 004°47'2 4.7
2018-Jul-14 10:30N 48°23' W 004°49'714.7
2018-Jul-14 10:01N 48°27' W 004°59'3 6.5
2018-Jul-14 09:31N 48°28' W 005°03'2 3.4
2018-Jul-14 09:00N 48°28' W 005°01'4 8.7
2018-Jul-14 08:30N 48°24' W 004°57'510.7
2018-Jul-14 08:00N 48°23' W 004°49'2 4.7
2018-Jul-14 07:30N 48°22' W 004°47'3 6.8
2018-Jul-14 07:00N 48°20' W 004°43'816.7
2018-Jul-14 06:30N 48°22' W 004°31'2 3.0
2018-Jul-14 06:00N 48°23' W 004°29'0 0.0
2018-Jul-14 05:28N 48°23' W 004°29'0 0.0
2018-Jul-14 05:00N 48°23' W 004°29'0 0.0
2018-Jul-14 04:30N 48°23' W 004°29'0 0.0
2018-Jul-14 04:00N 48°23' W 004°29'0 0.0
2018-Jul-14 03:30N 48°23' W 004°29'0 0.0
2018-Jul-14 03:00N 48°23' W 004°29'0 0.0
2018-Jul-14 02:30N 48°23' W 004°29'0 0.0
2018-Jul-14 02:00N 48°23' W 004°29'0 0.0
2018-Jul-14 01:28N 48°23' W 004°29'0 0.0
2018-Jul-14 00:58N 48°23' W 004°29'0 0.0
2018-Jul-14 00:28N 48°23' W 004°29'0 0.0
2018-Jul-13 23:57N 48°23' W 004°29'0 0.0
2018-Jul-13 23:30N 48°23' W 004°29'0 0.0
2018-Jul-13 23:00N 48°23' W 004°29'0 0.0
2018-Jul-13 22:28N 48°23' W 004°29'0 0.0
2018-Jul-13 22:00N 48°23' W 004°29'0 0.0
2018-Jul-13 21:26N 48°23' W 004°29'0 0.0
2018-Jul-13 20:54N 48°23' W 004°29'0 0.0
2018-Jul-13 20:30N 48°23' W 004°29'2 4.2
2018-Jul-13 20:00N 48°21' W 004°31'713.9
2018-Jul-13 19:30N 48°20' W 004°41'4 7.8
2018-Jul-13 19:00N 48°22' W 004°47'714.7
2018-Jul-13 18:31N 48°26' W 004°55'611.2
2018-Jul-13 17:59N 48°28' W 005°03'4 7.5
2018-Jul-13 17:30N 48°26' W 004°59'3 6.6
2018-Jul-13 17:00N 48°24' W 004°55'611.9
2018-Jul-13 16:30N 48°22' W 004°47'0 0.0
2018-Jul-13 16:00N 48°22' W 004°47'713.8
2018-Jul-13 15:31N 48°25' W 004°56'3 6.1
2018-Jul-13 15:00N 48°27' W 004°60'3 2.8
2018-Jul-13 13:58N 48°28' W 005°03'0 0.0
2018-Jul-13 13:28N 48°28' W 005°03'0 0.0
2018-Jul-13 12:58N 48°28' W 005°03'0 0.0
2018-Jul-13 12:29N 48°28' W 005°03'0 0.0
2018-Jul-13 12:00N 48°28' W 005°03'  

Dump ship's entire track history